createdAt,value
2022-10-25T00:02:18.007Z,100941.81
2022-10-25T00:04:46.735Z,100944.44
2022-10-25T00:07:15.683Z,100948.94
2022-10-25T00:09:45.449Z,100950.81
2022-10-25T00:12:13.848Z,100957.84
2022-10-25T00:14:42.217Z,100955.28
2022-10-25T00:17:10.894Z,100954.38
2022-10-25T00:19:39.349Z,100956.19
2022-10-25T00:22:07.747Z,100959.84
2022-10-25T00:24:36.034Z,100957.00
2022-10-25T00:27:06.811Z,100927.44
2022-10-25T00:29:35.350Z,100968.69
2022-10-25T00:32:03.931Z,100972.19
2022-10-25T00:34:32.413Z,100973.19
2022-10-25T00:37:00.798Z,100963.34
2022-10-25T00:39:29.263Z,100911.91
2022-10-25T00:41:57.543Z,100943.38
2022-10-25T00:44:51.625Z,100976.72
2022-10-25T00:47:31.479Z,100978.16
2022-10-25T00:50:05.033Z,100983.50
2022-10-25T00:52:38.149Z,100982.72
2022-10-25T00:55:08.730Z,100984.44
2022-10-25T00:57:43.981Z,100991.72
2022-10-25T01:00:15.203Z,100985.50
2022-10-25T01:02:44.019Z,100980.16
2022-10-25T01:05:12.640Z,100972.03
2022-10-25T01:07:41.342Z,100985.50
2022-10-25T01:10:11.457Z,100982.88
2022-10-25T01:12:39.929Z,100990.78
2022-10-25T01:15:10.063Z,100985.38
2022-10-25T01:17:52.759Z,100989.84
2022-10-25T01:20:59.030Z,100990.78
2022-10-25T01:23:59.203Z,100992.56
2022-10-25T01:27:28.383Z,100997.75
2022-10-25T01:30:09.863Z,100976.03
2022-10-25T01:32:49.242Z,100969.75
2022-10-25T01:35:28.127Z,101015.84
2022-10-25T01:38:27.941Z,101002.53
2022-10-25T01:41:10.675Z,101004.25
2022-10-25T01:43:47.648Z,101016.59
2022-10-25T01:46:22.692Z,101019.22
2022-10-25T01:49:00.649Z,101015.53
2022-10-25T01:51:29.886Z,101007.75
2022-10-25T01:53:58.748Z,101015.44
2022-10-25T01:56:31.551Z,101010.09
2022-10-25T01:59:24.040Z,101007.69
2022-10-25T02:02:03.343Z,100999.06
2022-10-25T02:04:47.636Z,100997.16
2022-10-25T02:07:25.068Z,100997.28
2022-10-25T02:12:49.701Z,100995.41
2022-10-25T02:15:26.084Z,101021.72
2022-10-25T02:18:00.321Z,101017.59
2022-10-25T02:20:35.173Z,101006.13
2022-10-25T02:23:06.796Z,101024.41
2022-10-25T02:25:37.480Z,101031.47
2022-10-25T02:28:08.418Z,101014.06
2022-10-25T02:30:37.922Z,101034.03
2022-10-25T02:33:06.533Z,100999.78
2022-10-25T02:35:36.424Z,101041.84
2022-10-25T02:38:05.282Z,100721.94
2022-10-25T02:40:33.702Z,101040.84
2022-10-25T02:43:02.027Z,101031.88
2022-10-25T02:45:30.275Z,101039.06
2022-10-25T02:47:58.583Z,100998.72
2022-10-25T02:50:26.911Z,101038.06
2022-10-25T02:52:56.615Z,101042.50
2022-10-25T02:55:24.929Z,101044.13
2022-10-25T02:57:53.173Z,101038.78
2022-10-25T03:00:21.806Z,101048.53
2022-10-25T03:02:50.304Z,101047.59
2022-10-25T03:05:18.714Z,101054.81
2022-10-25T03:07:46.990Z,101041.50
2022-10-25T03:10:16.802Z,101031.53
2022-10-25T03:12:45.394Z,101033.16
2022-10-25T03:15:14.105Z,101000.72
2022-10-25T03:17:44.462Z,101057.75
2022-10-25T03:20:13.099Z,101053.25
2022-10-25T03:22:41.354Z,101032.41
2022-10-25T03:25:10.403Z,101070.28
2022-10-25T03:27:40.045Z,101082.78
2022-10-25T03:30:09.663Z,101056.56
2022-10-25T03:32:38.547Z,101086.47
2022-10-25T03:35:08.614Z,101051.63
2022-10-25T03:37:36.975Z,101072.09
2022-10-25T03:40:06.433Z,101096.56
2022-10-25T03:42:34.709Z,101092.97
2022-10-25T03:45:04.779Z,101060.44
2022-10-25T03:47:33.038Z,101097.38
2022-10-25T03:50:01.360Z,101099.09
2022-10-25T03:52:29.612Z,101101.81
2022-10-25T03:54:57.859Z,101100.91
2022-10-25T03:57:26.186Z,101105.38
2022-10-25T03:59:54.487Z,101096.50
2022-10-25T04:02:25.250Z,101097.34
2022-10-25T04:04:53.844Z,101084.06
2022-10-25T04:07:22.368Z,101068.44
2022-10-25T04:09:50.745Z,101078.19
2022-10-25T04:12:19.033Z,101093.25
2022-10-25T04:14:47.338Z,101098.53
2022-10-25T04:17:15.622Z,101114.41
2022-10-25T04:19:45.451Z,101098.63
2022-10-25T04:22:14.492Z,101084.84
2022-10-25T04:24:42.738Z,101088.38
2022-10-25T04:27:11.034Z,101118.28
2022-10-25T04:29:39.409Z,101104.19
2022-10-25T04:32:08.214Z,101118.56
2022-10-25T04:34:36.564Z,101073.56
2022-10-25T04:37:06.358Z,101133.41
2022-10-25T04:39:34.675Z,101137.06
2022-10-25T04:42:03.049Z,101131.78
2022-10-25T04:44:31.376Z,101139.69
2022-10-25T04:46:59.554Z,101141.66
2022-10-25T04:49:27.931Z,100833.84
2022-10-25T04:51:56.196Z,101155.00
2022-10-25T04:54:26.027Z,101148.03
2022-10-25T04:56:54.352Z,101154.22
2022-10-25T04:59:26.979Z,101154.25
2022-10-25T05:01:55.364Z,101156.94
2022-10-25T05:04:23.880Z,101164.09
2022-10-25T05:06:52.236Z,101162.22
2022-10-25T05:09:20.511Z,101156.19
2022-10-25T05:11:50.203Z,101167.84
2022-10-25T05:14:18.580Z,101177.63
2022-10-25T05:16:46.871Z,101150.56
2022-10-25T05:19:15.321Z,101155.00
2022-10-25T05:21:43.722Z,101153.47
2022-10-25T05:24:12.003Z,101186.06
2022-10-25T05:26:40.272Z,101189.66
2022-10-25T05:29:13.333Z,101194.94
2022-10-25T05:31:42.870Z,101189.63
2022-10-25T05:34:12.038Z,101203.88
2022-10-25T05:36:40.404Z,101198.50
2022-10-25T05:39:08.780Z,101200.31
2022-10-25T05:41:37.434Z,101200.41
2022-10-25T05:44:06.408Z,101207.50
2022-10-25T05:46:36.217Z,101197.06
2022-10-25T05:49:05.035Z,101194.47
2022-10-25T05:51:36.305Z,100916.16
2022-10-25T05:54:07.461Z,101218.47
2022-10-25T05:56:36.684Z,101193.53
2022-10-25T05:59:08.881Z,101209.22
2022-10-25T06:01:41.969Z,101197.19
2022-10-25T06:04:11.443Z,101211.13
2022-10-25T06:06:41.185Z,101152.41
2022-10-25T06:09:10.368Z,101213.88
2022-10-25T06:11:39.926Z,101207.56
2022-10-25T06:14:10.379Z,101223.59
2022-10-25T06:16:40.108Z,101210.28
2022-10-25T06:19:08.860Z,101214.66
2022-10-25T06:21:37.692Z,101215.56
2022-10-25T06:24:06.777Z,101227.97
2022-10-25T06:26:35.082Z,101189.28
2022-10-25T06:29:06.145Z,101228.91
2022-10-25T06:31:35.097Z,101231.66
2022-10-25T06:34:05.062Z,101238.69
2022-10-25T06:36:33.450Z,101235.94
2022-10-25T06:39:05.577Z,101240.34
2022-10-25T06:41:36.997Z,101243.97
2022-10-25T06:44:07.139Z,101216.81
2022-10-25T06:47:11.804Z,101236.50
2022-10-25T06:49:28.055Z,101264.72
2022-10-25T06:51:56.337Z,101263.94
2022-10-25T06:54:26.638Z,101270.91
2022-10-25T06:56:55.090Z,101271.72
2022-10-25T06:59:26.381Z,101276.25
2022-10-25T07:01:55.350Z,101289.44
2022-10-25T07:04:23.737Z,101281.09
2022-10-25T07:06:55.341Z,101274.69
2022-10-25T07:09:24.080Z,101277.91
2022-10-25T07:11:52.444Z,101279.34
2022-10-25T07:14:20.861Z,101285.22
2022-10-25T07:16:49.219Z,101288.25
2022-10-25T07:19:17.499Z,101295.91
2022-10-25T07:21:46.382Z,101253.22
2022-10-25T07:24:16.100Z,101282.69
2022-10-25T07:26:45.057Z,101309.56
2022-10-25T07:29:13.294Z,101313.53
2022-10-25T07:31:44.247Z,101321.88
2022-10-25T07:34:15.234Z,101319.81
2022-10-25T07:36:43.570Z,101328.97
2022-10-25T07:39:11.935Z,101311.00
2022-10-25T07:41:41.626Z,101326.28
2022-10-25T07:44:15.589Z,101323.63
2022-10-25T07:46:45.138Z,101325.13
2022-10-25T07:49:13.728Z,101331.59
2022-10-25T07:51:42.045Z,101331.06
2022-10-25T07:54:10.517Z,101294.50
2022-10-25T07:56:38.722Z,101316.78
2022-10-25T07:59:08.390Z,101331.00
2022-10-25T08:01:37.682Z,101342.00
2022-10-25T08:04:06.112Z,101296.31
2022-10-25T08:06:36.164Z,101329.16
2022-10-25T08:09:14.435Z,101335.88
2022-10-25T08:11:48.805Z,101336.03
2022-10-25T08:14:18.482Z,101345.44
2022-10-25T08:16:46.861Z,101349.91
2022-10-25T08:19:15.128Z,101355.38
2022-10-25T08:21:43.577Z,101350.94
2022-10-25T08:24:12.163Z,101347.84
2022-10-25T08:26:40.486Z,101359.25
2022-10-25T08:29:08.809Z,101357.44
2022-10-25T08:31:38.544Z,101368.25
2022-10-25T08:34:07.044Z,101350.47
2022-10-25T08:36:35.457Z,101357.75
2022-10-25T08:39:03.891Z,101325.47
2022-10-25T08:41:44.386Z,101367.75
2022-10-25T08:44:30.793Z,101366.72
2022-10-25T08:47:05.920Z,101378.06
2022-10-25T08:49:49.752Z,101361.09
2022-10-25T08:52:22.858Z,101372.81
2022-10-25T08:54:51.932Z,101372.44
2022-10-25T08:57:25.439Z,101357.81
2022-10-25T08:59:57.063Z,101369.50
2022-10-25T09:02:37.513Z,101379.16
2022-10-25T09:05:13.915Z,101382.44
2022-10-25T09:08:08.512Z,101386.16
2022-10-25T09:10:51.565Z,101393.47
2022-10-25T09:16:16.620Z,101394.38
2022-10-25T09:18:51.114Z,101397.25
2022-10-25T09:21:24.238Z,101395.63
2022-10-25T09:24:00.608Z,101394.88
2022-10-25T09:26:47.524Z,101371.50
2022-10-25T09:29:25.172Z,101409.41
2022-10-25T09:31:58.842Z,101409.53
2022-10-25T09:34:34.019Z,101419.34
2022-10-25T09:37:15.114Z,101414.16
2022-10-25T09:39:47.539Z,101417.59
2022-10-25T09:42:21.946Z,101411.41
2022-10-25T09:44:55.208Z,101418.41
2022-10-25T09:47:42.912Z,101414.75
2022-10-25T09:50:22.359Z,101391.97
2022-10-25T09:53:09.926Z,101412.03
2022-10-25T09:55:45.242Z,101424.34
2022-10-25T09:58:21.148Z,101414.09
2022-10-25T10:00:50.119Z,101422.03
2022-10-25T10:03:21.787Z,101404.13
2022-10-25T10:05:55.243Z,101412.44
2022-10-25T10:08:23.891Z,101416.69
2022-10-25T10:10:54.541Z,101421.41
2022-10-25T10:13:29.842Z,101427.56
2022-10-25T10:16:01.155Z,101428.81
2022-10-25T10:18:31.931Z,101411.06
2022-10-25T10:21:14.983Z,101403.34
2022-10-25T10:23:52.602Z,101264.44
2022-10-25T10:26:29.713Z,101332.94
2022-10-25T10:29:08.901Z,101444.69
2022-10-25T10:31:39.841Z,101448.25
2022-10-25T10:34:14.048Z,101458.72
2022-10-25T10:36:47.458Z,101450.06
2022-10-25T10:39:22.678Z,101458.44
2022-10-25T10:42:03.287Z,101431.22
2022-10-25T10:44:34.698Z,101436.97
2022-10-25T10:47:11.654Z,101441.81
2022-10-25T10:49:43.264Z,101444.84
2022-10-25T10:52:29.291Z,101430.41
2022-10-25T10:54:58.261Z,101448.88
2022-10-25T10:57:34.029Z,101447.03
2022-10-25T11:00:02.955Z,101437.03
2022-10-25T11:02:42.974Z,101442.66
2022-10-25T11:05:27.562Z,101451.19
2022-10-25T11:08:00.642Z,101446.41
2022-10-25T11:10:33.891Z,101449.94
2022-10-25T11:13:20.985Z,101438.56
2022-10-25T11:16:21.026Z,101436.91
2022-10-25T11:19:10.074Z,101455.78
2022-10-25T11:22:12.898Z,101422.47
2022-10-25T11:24:56.445Z,101455.59
2022-10-25T11:27:38.771Z,101442.22
2022-10-25T11:30:14.139Z,101460.81
2022-10-25T11:33:17.602Z,101461.13
2022-10-25T11:36:07.182Z,101461.47
2022-10-25T11:38:48.919Z,101463.38
2022-10-25T11:41:32.418Z,101419.81
2022-10-25T11:44:47.679Z,101454.63
2022-10-25T11:47:29.387Z,101462.81
2022-10-25T11:50:11.952Z,101437.34
2022-10-25T11:53:16.088Z,101453.25
2022-10-25T11:55:49.725Z,101450.56
2022-10-25T11:58:37.008Z,101433.91
2022-10-25T12:01:21.069Z,101450.22
2022-10-25T12:04:03.881Z,101453.78
2022-10-25T12:06:41.960Z,101449.38
2022-10-25T12:09:25.319Z,101450.72
2022-10-25T12:11:59.779Z,101437.22
2022-10-25T12:14:36.115Z,101446.28
2022-10-25T12:17:09.058Z,101448.38
2022-10-25T12:19:46.601Z,101157.34
2022-10-25T12:22:19.854Z,101453.59
2022-10-25T12:24:52.878Z,101449.16
2022-10-25T12:27:23.042Z,101421.88
2022-10-25T12:29:56.426Z,101447.94
2022-10-25T12:32:33.479Z,101446.94
2022-10-25T12:35:06.988Z,101448.38
2022-10-25T12:37:40.266Z,101458.22
2022-10-25T12:40:16.235Z,101435.94
2022-10-25T12:42:48.351Z,101461.66
2022-10-25T12:46:00.012Z,101453.78
2022-10-25T12:48:58.862Z,101442.97
2022-10-25T12:51:45.160Z,101441.81
2022-10-25T12:54:54.817Z,101452.63
2022-10-25T12:57:32.866Z,101452.56
2022-10-25T13:00:12.590Z,101449.88
2022-10-25T13:03:19.293Z,101449.31
2022-10-25T13:06:27.798Z,101448.22
2022-10-25T13:09:03.078Z,101443.31
2022-10-25T13:11:38.306Z,101427.25
2022-10-25T13:14:15.906Z,101442.91
2022-10-25T13:16:47.058Z,101441.50
2022-10-25T13:22:39.898Z,101444.88
2022-10-25T13:25:19.704Z,101444.50
2022-10-25T13:28:34.036Z,101459.44
2022-10-25T13:31:58.572Z,101432.84
2022-10-25T13:34:36.896Z,101451.19
2022-10-25T13:37:42.392Z,101403.59
2022-10-25T13:40:26.819Z,101426.44
2022-10-25T13:43:04.836Z,101444.53
2022-10-25T13:45:44.408Z,101437.09
2022-10-25T13:48:29.897Z,101438.28
2022-10-25T13:51:01.504Z,101441.47
2022-10-25T13:53:38.085Z,101416.72
2022-10-25T13:56:10.328Z,101447.50
2022-10-25T13:58:53.365Z,101448.34
2022-10-25T14:01:57.070Z,101435.09
2022-10-25T14:04:44.700Z,101446.31
2022-10-25T14:07:49.049Z,101435.97
2022-10-25T14:10:29.240Z,101420.22
2022-10-25T14:13:09.671Z,101158.13
2022-10-25T14:15:46.746Z,101431.72
2022-10-25T14:18:20.758Z,101427.31
2022-10-25T14:20:55.485Z,101435.16
2022-10-25T14:23:30.178Z,101430.47
2022-10-25T14:26:01.220Z,101432.19
2022-10-25T14:28:31.071Z,101436.78
2022-10-25T14:31:01.535Z,101397.31
2022-10-25T14:33:32.215Z,101436.88
2022-10-25T14:36:09.955Z,101421.84
2022-10-25T14:38:52.664Z,101354.28
2022-10-25T14:41:26.525Z,101379.94
2022-10-25T14:43:55.891Z,101426.25
2022-10-25T14:46:25.563Z,101421.84
2022-10-25T14:48:58.046Z,101392.94
2022-10-25T14:51:30.321Z,101405.81
2022-10-25T14:54:04.657Z,101409.41
2022-10-25T14:56:37.120Z,101416.50
2022-10-25T14:59:09.181Z,101414.91
2022-10-25T15:01:38.662Z,101414.09
2022-10-25T15:04:07.127Z,101406.22
2022-10-25T15:06:35.580Z,101406.09
2022-10-25T15:12:17.003Z,101404.31
2022-10-25T15:14:47.434Z,101402.09
2022-10-25T15:17:26.423Z,101404.84
2022-10-25T15:20:07.603Z,101390.78
2022-10-25T15:22:45.690Z,101392.09
2022-10-25T15:25:32.859Z,101383.13
2022-10-25T15:28:11.912Z,101379.75
2022-10-25T15:30:43.506Z,101390.44
2022-10-25T15:33:14.839Z,101394.63
2022-10-25T15:35:52.200Z,101381.41
2022-10-25T15:38:20.938Z,101394.41
2022-10-25T15:40:50.966Z,101388.63
2022-10-25T15:43:19.316Z,101389.53
2022-10-25T15:45:47.740Z,101371.41
2022-10-25T15:48:18.718Z,101368.56
2022-10-25T15:50:52.666Z,101397.00
2022-10-25T15:53:21.964Z,101364.53
2022-10-25T15:55:52.911Z,101396.06
2022-10-25T15:58:21.270Z,101293.53
2022-10-25T16:00:52.091Z,101390.34
2022-10-25T16:03:24.462Z,101391.22
2022-10-25T16:05:53.751Z,101397.72
2022-10-25T16:08:22.101Z,101393.53
2022-10-25T16:10:52.138Z,101316.38
2022-10-25T16:13:27.192Z,101392.59
2022-10-25T16:15:55.680Z,101383.41
2022-10-25T16:20:59.132Z,101386.03
2022-10-25T16:23:28.273Z,101388.69
2022-10-25T16:25:57.913Z,101389.78
2022-10-25T16:30:59.549Z,101352.00
2022-10-25T16:33:27.894Z,101381.31
2022-10-25T16:35:56.118Z,101380.59
2022-10-25T16:38:24.433Z,101386.94
2022-10-25T16:40:52.875Z,101374.91
2022-10-25T16:43:22.791Z,101379.91
2022-10-25T16:45:51.164Z,101385.38
2022-10-25T16:48:19.491Z,101359.88
2022-10-25T16:50:47.847Z,101331.22
2022-10-25T16:53:16.178Z,101361.19
2022-10-25T16:55:44.573Z,101372.13
2022-10-25T16:58:12.794Z,101362.75
2022-10-25T17:00:42.521Z,101361.03
2022-10-25T17:03:11.506Z,101358.03
2022-10-25T17:05:40.284Z,101365.19
2022-10-25T17:08:08.664Z,101349.88
2022-10-25T17:10:42.458Z,101361.63
2022-10-25T17:13:15.636Z,101353.88
2022-10-25T17:15:45.424Z,101354.53
2022-10-25T17:18:20.882Z,101358.00
2022-10-25T17:20:50.226Z,101350.06
2022-10-25T17:23:18.478Z,101361.50
2022-10-25T17:25:46.759Z,101358.84
2022-10-25T17:28:15.146Z,101357.06
2022-10-25T17:30:44.932Z,101365.19
2022-10-25T17:33:13.175Z,101349.53
2022-10-25T17:35:42.748Z,101333.94
2022-10-25T17:38:11.122Z,101365.94
2022-10-25T17:40:39.795Z,101356.22
2022-10-25T17:43:08.167Z,101353.75
2022-10-25T17:45:36.483Z,101361.63
2022-10-25T17:48:06.942Z,101358.22
2022-10-25T17:50:40.835Z,101353.16
2022-10-25T17:53:10.633Z,101332.31
2022-10-25T17:55:41.160Z,101360.88
2022-10-25T17:58:09.577Z,101358.31
2022-10-25T18:00:37.817Z,101357.78
2022-10-25T18:03:07.727Z,101353.22
2022-10-25T18:05:36.231Z,101359.63
2022-10-25T18:08:04.559Z,101355.34
2022-10-25T18:10:34.760Z,101328.19
2022-10-25T18:13:03.293Z,101362.56
2022-10-25T18:15:33.334Z,101361.78
2022-10-25T18:18:01.790Z,101347.75
2022-10-25T18:20:31.424Z,101349.53
2022-10-25T18:22:59.739Z,101375.22
2022-10-25T18:25:27.967Z,101358.25
2022-10-25T18:27:56.338Z,101353.91
2022-10-25T18:30:24.670Z,101363.38
2022-10-25T18:32:56.345Z,101355.44
2022-10-25T18:35:24.599Z,101359.91
2022-10-25T18:37:54.229Z,101355.34
2022-10-25T18:40:22.936Z,101363.47
2022-10-25T18:42:51.180Z,101338.78
2022-10-25T18:45:19.476Z,101341.34
2022-10-25T18:47:53.214Z,101338.84
2022-10-25T18:50:21.789Z,101324.88
2022-10-25T18:52:50.171Z,101326.53
2022-10-25T18:55:21.492Z,101342.59
2022-10-25T18:57:50.209Z,101329.38
2022-10-25T19:00:19.544Z,101334.53
2022-10-25T19:02:52.570Z,101337.19
2022-10-25T19:05:21.011Z,101337.56
2022-10-25T19:07:49.501Z,101334.84
2022-10-25T19:10:19.662Z,101326.00
2022-10-25T19:12:48.042Z,101330.25
2022-10-25T19:15:16.436Z,101293.56
2022-10-25T19:17:44.863Z,101333.19
2022-10-25T19:20:13.398Z,101321.88
2022-10-25T19:22:41.786Z,101264.78
2022-10-25T19:25:10.833Z,101327.28
2022-10-25T19:27:40.460Z,101316.84
2022-10-25T19:30:10.464Z,101312.84
2022-10-25T19:32:38.781Z,101326.25
2022-10-25T19:35:07.709Z,101320.94
2022-10-25T19:37:39.504Z,101291.84
2022-10-25T19:40:10.629Z,101321.59
2022-10-25T19:42:40.406Z,101322.47
2022-10-25T19:45:09.340Z,101314.31
2022-10-25T19:47:37.626Z,101321.38
2022-10-25T19:50:06.696Z,101313.22
2022-10-25T19:52:36.214Z,101316.06
2022-10-25T19:55:06.176Z,101298.63
2022-10-25T19:57:35.355Z,101307.31
2022-10-25T20:00:09.850Z,101302.78
2022-10-25T20:02:41.038Z,101306.41
2022-10-25T20:07:39.916Z,101285.97
2022-10-25T20:10:09.088Z,101245.47
2022-10-25T20:12:37.339Z,101296.63
2022-10-25T20:15:08.656Z,101295.91
2022-10-25T20:17:37.201Z,101271.47
2022-10-25T20:20:06.787Z,101295.09
2022-10-25T20:22:38.060Z,101275.03
2022-10-25T20:25:08.030Z,101287.50
2022-10-25T20:27:36.640Z,101274.34
2022-10-25T20:30:07.847Z,101296.22
2022-10-25T20:32:36.294Z,101280.53
2022-10-25T20:37:38.032Z,101293.00
2022-10-25T20:40:07.865Z,101288.41
2022-10-25T20:42:36.175Z,101284.88
2022-10-25T20:45:06.493Z,101279.59
2022-10-25T20:47:34.851Z,101276.28
2022-10-25T20:50:03.128Z,101311.06
2022-10-25T20:52:31.518Z,101287.16
2022-10-25T20:54:59.813Z,101285.22
2022-10-25T20:57:28.231Z,101208.50
2022-10-25T20:59:56.451Z,101276.22
2022-10-25T21:02:26.170Z,101278.06
2022-10-25T21:04:54.689Z,101258.91
2022-10-25T21:07:23.200Z,101278.47
2022-10-25T21:09:51.545Z,101275.72
2022-10-25T21:12:19.899Z,101236.03
2022-10-25T21:14:48.160Z,101273.00
2022-10-25T21:17:16.579Z,101281.72
2022-10-25T21:19:46.328Z,101276.66
2022-10-25T21:22:14.635Z,101262.41
2022-10-25T21:24:42.916Z,101275.72
2022-10-25T21:27:11.187Z,101280.41
2022-10-25T21:29:39.493Z,101266.28
2022-10-25T21:32:07.947Z,101270.69
2022-10-25T21:34:36.348Z,101268.06
2022-10-25T21:37:06.076Z,101270.63
2022-10-25T21:39:34.304Z,101272.28
2022-10-25T21:42:02.607Z,101266.16
2022-10-25T21:44:30.837Z,101263.56
2022-10-25T21:46:59.118Z,101265.31
2022-10-25T21:49:27.339Z,101232.75
2022-10-25T21:51:55.581Z,101235.47
2022-10-25T21:54:25.383Z,101265.47
2022-10-25T21:56:54.118Z,101231.03
2022-10-25T21:59:23.273Z,101227.66
2022-10-25T22:01:51.611Z,101270.88
2022-10-25T22:04:20.042Z,101261.25
2022-10-25T22:06:48.434Z,101262.19
2022-10-25T22:09:16.832Z,101248.09
2022-10-25T22:11:46.459Z,101255.19
2022-10-25T22:14:15.910Z,101264.91
2022-10-25T22:16:44.809Z,101249.25
2022-10-25T22:19:17.002Z,101258.88
2022-10-25T22:21:46.356Z,101255.22
2022-10-25T22:24:14.765Z,101256.16
2022-10-25T22:26:46.321Z,101256.16
2022-10-25T22:29:15.606Z,101234.25
2022-10-25T22:31:44.021Z,101219.22
2022-10-25T22:34:12.583Z,101256.38
2022-10-25T22:36:42.573Z,101250.13
2022-10-25T22:39:11.592Z,101251.84
2022-10-25T22:41:39.897Z,101240.53
2022-10-25T22:44:09.695Z,101244.88
2022-10-25T22:46:38.010Z,101235.09
2022-10-25T22:49:08.597Z,101233.22
2022-10-25T22:51:38.610Z,101219.97
2022-10-25T22:54:07.591Z,101205.97
2022-10-25T22:56:35.968Z,101230.56
2022-10-25T22:59:07.068Z,101210.31
2022-10-25T23:01:38.667Z,101217.38
2022-10-25T23:04:08.955Z,101230.66
2022-10-25T23:06:40.128Z,101201.72
2022-10-25T23:09:11.080Z,101230.78
2022-10-25T23:11:41.442Z,101232.53
2022-10-25T23:14:14.755Z,101235.25
2022-10-25T23:16:47.262Z,101229.09
2022-10-25T23:19:15.731Z,101230.91
2022-10-25T23:21:44.100Z,101229.91
2022-10-25T23:24:12.334Z,101223.72
2022-10-25T23:26:40.872Z,101229.09
2022-10-25T23:29:11.285Z,101210.63
2022-10-25T23:31:39.690Z,101215.00
2022-10-25T23:34:09.809Z,101215.84
2022-10-25T23:36:38.219Z,101210.41
2022-10-25T23:39:09.048Z,101221.81
2022-10-25T23:41:37.624Z,101198.13
2022-10-25T23:44:06.113Z,101219.13
2022-10-25T23:46:34.390Z,101209.28
2022-10-25T23:49:02.725Z,101195.94
2022-10-25T23:51:32.285Z,101074.41
2022-10-25T23:54:00.635Z,101189.75
2022-10-25T23:56:28.899Z,101169.66
2022-10-25T23:58:57.187Z,101169.50
